sensor_id;sensor_type;location;lat;lon;timestamp;temperature;humidity
52189;DHT22;38162;45.926;13.608;2024-03-02T00:00:08;10.80;99.90
52189;DHT22;38162;45.926;13.608;2024-03-02T00:02:47;10.80;99.90
52189;DHT22;38162;45.926;13.608;2024-03-02T00:05:23;10.80;99.90
52189;DHT22;38162;45.926;13.608;2024-03-02T00:07:58;10.80;99.90
52189;DHT22;38162;45.926;13.608;2024-03-02T00:10:26;10.80;99.90
52189;DHT22;38162;45.926;13.608;2024-03-02T00:12:57;10.70;99.90
52189;DHT22;38162;45.926;13.608;2024-03-02T00:15:45;10.70;99.90
52189;DHT22;38162;45.926;13.608;2024-03-02T00:18:12;10.70;99.90
52189;DHT22;38162;45.926;13.608;2024-03-02T00:20:39;10.70;99.90
52189;DHT22;38162;45.926;13.608;2024-03-02T00:23:06;10.60;99.90
52189;DHT22;38162;45.926;13.608;2024-03-02T00:25:53;10.60;99.90
52189;DHT22;38162;45.926;13.608;2024-03-02T00:28:31;10.60;99.90
52189;DHT22;38162;45.926;13.608;2024-03-02T00:31:09;10.60;99.90
52189;DHT22;38162;45.926;13.608;2024-03-02T00:33:45;10.60;99.90
52189;DHT22;38162;45.926;13.608;2024-03-02T00:36:14;10.60;99.90
52189;DHT22;38162;45.926;13.608;2024-03-02T00:38:50;10.60;99.90
52189;DHT22;38162;45.926;13.608;2024-03-02T00:41:25;10.60;99.90
52189;DHT22;38162;45.926;13.608;2024-03-02T00:44:04;10.60;99.90
52189;DHT22;38162;45.926;13.608;2024-03-02T00:46:41;10.60;99.90
52189;DHT22;38162;45.926;13.608;2024-03-02T00:51:38;10.60;99.90
52189;DHT22;38162;45.926;13.608;2024-03-02T00:54:08;10.60;99.90
52189;DHT22;38162;45.926;13.608;2024-03-02T00:56:35;10.60;99.90
52189;DHT22;38162;45.926;13.608;2024-03-02T00:59:23;10.60;99.90
52189;DHT22;38162;45.926;13.608;2024-03-02T01:08:50;10.60;99.90
52189;DHT22;38162;45.926;13.608;2024-03-02T01:14:42;10.60;99.90
52189;DHT22;38162;45.926;13.608;2024-03-02T01:17:19;10.60;99.90
52189;DHT22;38162;45.926;13.608;2024-03-02T01:19:54;10.60;99.90
52189;DHT22;38162;45.926;13.608;2024-03-02T01:22:26;10.70;99.90
52189;DHT22;38162;45.926;13.608;2024-03-02T01:24:55;10.60;99.90
52189;DHT22;38162;45.926;13.608;2024-03-02T01:27:21;10.60;99.90
52189;DHT22;38162;45.926;13.608;2024-03-02T01:29:47;10.60;99.90
52189;DHT22;38162;45.926;13.608;2024-03-02T01:32:12;10.60;99.90
52189;DHT22;38162;45.926;13.608;2024-03-02T01:34:38;10.60;99.90
52189;DHT22;38162;45.926;13.608;2024-03-02T01:37:04;10.60;99.90
52189;DHT22;38162;45.926;13.608;2024-03-02T01:39:30;10.60;99.90
52189;DHT22;38162;45.926;13.608;2024-03-02T01:41:56;10.60;99.90
52189;DHT22;38162;45.926;13.608;2024-03-02T01:44:21;10.60;99.90
52189;DHT22;38162;45.926;13.608;2024-03-02T01:46:47;10.60;99.90
52189;DHT22;38162;45.926;13.608;2024-03-02T01:49:13;10.60;99.90
52189;DHT22;38162;45.926;13.608;2024-03-02T01:51:39;10.70;99.90
52189;DHT22;38162;45.926;13.608;2024-03-02T01:54:04;10.70;99.90
52189;DHT22;38162;45.926;13.608;2024-03-02T01:56:30;10.70;99.90
52189;DHT22;38162;45.926;13.608;2024-03-02T01:58:56;10.70;99.90
52189;DHT22;38162;45.926;13.608;2024-03-02T02:01:22;10.60;99.90
52189;DHT22;38162;45.926;13.608;2024-03-02T02:03:47;10.60;99.90
52189;DHT22;38162;45.926;13.608;2024-03-02T02:06:13;10.60;99.90
52189;DHT22;38162;45.926;13.608;2024-03-02T02:08:39;10.60;99.90
52189;DHT22;38162;45.926;13.608;2024-03-02T02:11:05;10.60;99.90
52189;DHT22;38162;45.926;13.608;2024-03-02T02:13:30;10.60;99.90
52189;DHT22;38162;45.926;13.608;2024-03-02T02:16:07;10.60;99.90
52189;DHT22;38162;45.926;13.608;2024-03-02T02:18:33;10.60;99.90
52189;DHT22;38162;45.926;13.608;2024-03-02T02:20:59;10.60;99.90
52189;DHT22;38162;45.926;13.608;2024-03-02T02:23:25;10.60;99.90
52189;DHT22;38162;45.926;13.608;2024-03-02T02:25:51;10.60;99.90
52189;DHT22;38162;45.926;13.608;2024-03-02T02:28:17;10.60;99.90
52189;DHT22;38162;45.926;13.608;2024-03-02T02:30:43;10.60;99.90
52189;DHT22;38162;45.926;13.608;2024-03-02T02:33:11;10.60;99.90
52189;DHT22;38162;45.926;13.608;2024-03-02T02:35:49;10.60;99.90
52189;DHT22;38162;45.926;13.608;2024-03-02T02:45:22;10.60;99.90
52189;DHT22;38162;45.926;13.608;2024-03-02T02:47:48;10.70;99.90
52189;DHT22;38162;45.926;13.608;2024-03-02T02:50:38;10.70;99.90
52189;DHT22;38162;45.926;13.608;2024-03-02T02:56:14;10.70;99.90
52189;DHT22;38162;45.926;13.608;2024-03-02T02:58:43;10.70;99.90
52189;DHT22;38162;45.926;13.608;2024-03-02T03:01:21;10.70;99.90
52189;DHT22;38162;45.926;13.608;2024-03-02T03:03:46;10.70;99.90
52189;DHT22;38162;45.926;13.608;2024-03-02T03:06:12;10.70;99.90
52189;DHT22;38162;45.926;13.608;2024-03-02T03:08:38;10.70;99.90
52189;DHT22;38162;45.926;13.608;2024-03-02T03:11:04;10.70;99.90
52189;DHT22;38162;45.926;13.608;2024-03-02T03:13:34;10.70;99.90
52189;DHT22;38162;45.926;13.608;2024-03-02T03:16:00;10.70;99.90
52189;DHT22;38162;45.926;13.608;2024-03-02T03:18:25;10.70;99.90
52189;DHT22;38162;45.926;13.608;2024-03-02T03:20:51;10.70;99.90
52189;DHT22;38162;45.926;13.608;2024-03-02T03:23:17;10.70;99.90
52189;DHT22;38162;45.926;13.608;2024-03-02T03:25:43;10.70;99.90
52189;DHT22;38162;45.926;13.608;2024-03-02T03:28:09;10.60;99.90
52189;DHT22;38162;45.926;13.608;2024-03-02T03:30:38;10.60;99.90
52189;DHT22;38162;45.926;13.608;2024-03-02T03:33:05;10.60;99.90
52189;DHT22;38162;45.926;13.608;2024-03-02T03:35:34;10.60;99.90
52189;DHT22;38162;45.926;13.608;2024-03-02T03:38:00;10.50;99.90
52189;DHT22;38162;45.926;13.608;2024-03-02T03:40:26;10.50;99.90
52189;DHT22;38162;45.926;13.608;2024-03-02T03:42:52;10.50;99.90
52189;DHT22;38162;45.926;13.608;2024-03-02T03:45:18;10.50;99.90
52189;DHT22;38162;45.926;13.608;2024-03-02T03:47:44;10.50;99.90
52189;DHT22;38162;45.926;13.608;2024-03-02T03:50:10;10.50;99.90
52189;DHT22;38162;45.926;13.608;2024-03-02T03:52:36;10.50;99.90
52189;DHT22;38162;45.926;13.608;2024-03-02T03:55:02;10.50;99.90
52189;DHT22;38162;45.926;13.608;2024-03-02T03:57:27;10.50;99.90
52189;DHT22;38162;45.926;13.608;2024-03-02T03:59:53;10.50;99.90
52189;DHT22;38162;45.926;13.608;2024-03-02T04:02:19;10.50;99.90
52189;DHT22;38162;45.926;13.608;2024-03-02T04:04:45;10.50;99.90
52189;DHT22;38162;45.926;13.608;2024-03-02T04:07:11;10.50;99.90
52189;DHT22;38162;45.926;13.608;2024-03-02T04:09:40;10.50;99.90
52189;DHT22;38162;45.926;13.608;2024-03-02T04:26:24;10.40;99.90
52189;DHT22;38162;45.926;13.608;2024-03-02T04:29:30;10.40;99.90
52189;DHT22;38162;45.926;13.608;2024-03-02T04:35:56;10.40;99.90
52189;DHT22;38162;45.926;13.608;2024-03-02T04:38:23;10.40;99.90
52189;DHT22;38162;45.926;13.608;2024-03-02T04:40:49;10.40;99.90
52189;DHT22;38162;45.926;13.608;2024-03-02T04:43:15;10.40;99.90
52189;DHT22;38162;45.926;13.608;2024-03-02T04:45:42;10.40;99.90
52189;DHT22;38162;45.926;13.608;2024-03-02T04:48:08;10.40;99.90
52189;DHT22;38162;45.926;13.608;2024-03-02T04:50:34;10.40;99.90
52189;DHT22;38162;45.926;13.608;2024-03-02T04:52:59;10.40;99.90
52189;DHT22;38162;45.926;13.608;2024-03-02T04:55:25;10.40;99.90
52189;DHT22;38162;45.926;13.608;2024-03-02T04:57:54;10.40;99.90
52189;DHT22;38162;45.926;13.608;2024-03-02T05:00:22;10.40;99.90
52189;DHT22;38162;45.926;13.608;2024-03-02T05:02:48;10.40;99.90
52189;DHT22;38162;45.926;13.608;2024-03-02T05:05:14;10.40;99.90
52189;DHT22;38162;45.926;13.608;2024-03-02T05:07:42;10.40;99.90
52189;DHT22;38162;45.926;13.608;2024-03-02T05:10:10;10.40;99.90
52189;DHT22;38162;45.926;13.608;2024-03-02T05:12:37;10.40;99.90
52189;DHT22;38162;45.926;13.608;2024-03-02T05:15:22;10.40;99.90
52189;DHT22;38162;45.926;13.608;2024-03-02T05:17:48;10.40;99.90
52189;DHT22;38162;45.926;13.608;2024-03-02T05:20:13;10.50;99.90
52189;DHT22;38162;45.926;13.608;2024-03-02T05:22:39;10.50;99.90
52189;DHT22;38162;45.926;13.608;2024-03-02T05:25:06;10.50;99.90
52189;DHT22;38162;45.926;13.608;2024-03-02T05:27:32;10.50;99.90
52189;DHT22;38162;45.926;13.608;2024-03-02T05:30:01;10.50;99.90
52189;DHT22;38162;45.926;13.608;2024-03-02T05:32:27;10.50;99.90
52189;DHT22;38162;45.926;13.608;2024-03-02T05:34:53;10.50;99.90
52189;DHT22;38162;45.926;13.608;2024-03-02T05:37:20;10.50;99.90
52189;DHT22;38162;45.926;13.608;2024-03-02T05:39:46;10.50;99.90
52189;DHT22;38162;45.926;13.608;2024-03-02T05:42:12;10.50;99.90
52189;DHT22;38162;45.926;13.608;2024-03-02T05:44:38;10.50;99.90
52189;DHT22;38162;45.926;13.608;2024-03-02T05:47:04;10.60;99.90
52189;DHT22;38162;45.926;13.608;2024-03-02T05:50:19;10.50;99.90
52189;DHT22;38162;45.926;13.608;2024-03-02T06:00:19;10.50;99.90
52189;DHT22;38162;45.926;13.608;2024-03-02T06:09:26;10.50;99.90
52189;DHT22;38162;45.926;13.608;2024-03-02T06:12:18;10.50;99.90
52189;DHT22;38162;45.926;13.608;2024-03-02T06:18:31;10.50;99.90
52189;DHT22;38162;45.926;13.608;2024-03-02T06:20:57;10.50;99.90
52189;DHT22;38162;45.926;13.608;2024-03-02T06:23:23;10.60;99.90
52189;DHT22;38162;45.926;13.608;2024-03-02T06:25:48;10.50;99.90
52189;DHT22;38162;45.926;13.608;2024-03-02T06:28:14;10.50;99.90
52189;DHT22;38162;45.926;13.608;2024-03-02T06:30:41;10.60;99.90
52189;DHT22;38162;45.926;13.608;2024-03-02T06:33:09;10.60;99.90
52189;DHT22;38162;45.926;13.608;2024-03-02T06:35:35;10.60;99.90
52189;DHT22;38162;45.926;13.608;2024-03-02T06:38:06;10.50;99.90
52189;DHT22;38162;45.926;13.608;2024-03-02T06:40:32;10.50;99.90
52189;DHT22;38162;45.926;13.608;2024-03-02T06:42:59;10.50;99.90
52189;DHT22;38162;45.926;13.608;2024-03-02T06:45:25;10.50;99.90
52189;DHT22;38162;45.926;13.608;2024-03-02T06:47:51;10.50;99.90
52189;DHT22;38162;45.926;13.608;2024-03-02T06:50:16;10.50;99.90
52189;DHT22;38162;45.926;13.608;2024-03-02T06:52:42;10.50;99.90
52189;DHT22;38162;45.926;13.608;2024-03-02T06:55:09;10.50;99.90
52189;DHT22;38162;45.926;13.608;2024-03-02T06:57:34;10.50;99.90
52189;DHT22;38162;45.926;13.608;2024-03-02T07:00:00;10.50;99.90
52189;DHT22;38162;45.926;13.608;2024-03-02T07:02:26;10.50;99.90
52189;DHT22;38162;45.926;13.608;2024-03-02T07:04:54;10.60;99.90
52189;DHT22;38162;45.926;13.608;2024-03-02T07:07:20;10.60;99.90
52189;DHT22;38162;45.926;13.608;2024-03-02T07:09:47;10.60;99.90
52189;DHT22;38162;45.926;13.608;2024-03-02T07:12:13;10.60;99.90
52189;DHT22;38162;45.926;13.608;2024-03-02T07:14:40;10.60;99.90
52189;DHT22;38162;45.926;13.608;2024-03-02T07:17:24;10.60;99.90
52189;DHT22;38162;45.926;13.608;2024-03-02T07:19:51;10.60;99.90
52189;DHT22;38162;45.926;13.608;2024-03-02T07:22:17;10.60;99.90
52189;DHT22;38162;45.926;13.608;2024-03-02T07:24:56;10.60;99.90
52189;DHT22;38162;45.926;13.608;2024-03-02T07:38:14;10.60;99.90
52189;DHT22;38162;45.926;13.608;2024-03-02T07:44:06;10.70;99.90
52189;DHT22;38162;45.926;13.608;2024-03-02T07:46:34;10.80;99.90
52189;DHT22;38162;45.926;13.608;2024-03-02T07:49:36;10.80;99.90
52189;DHT22;38162;45.926;13.608;2024-03-02T07:52:03;10.80;99.90
52189;DHT22;38162;45.926;13.608;2024-03-02T07:54:29;10.80;99.90
52189;DHT22;38162;45.926;13.608;2024-03-02T07:56:55;10.80;99.90
52189;DHT22;38162;45.926;13.608;2024-03-02T07:59:21;10.90;99.90
52189;DHT22;38162;45.926;13.608;2024-03-02T08:01:48;10.90;99.90
52189;DHT22;38162;45.926;13.608;2024-03-02T08:04:14;10.90;99.90
52189;DHT22;38162;45.926;13.608;2024-03-02T08:06:40;10.90;99.90
52189;DHT22;38162;45.926;13.608;2024-03-02T08:09:06;11.00;99.90
52189;DHT22;38162;45.926;13.608;2024-03-02T08:11:35;11.00;99.90
52189;DHT22;38162;45.926;13.608;2024-03-02T08:14:01;11.00;99.90
52189;DHT22;38162;45.926;13.608;2024-03-02T08:16:27;11.00;99.90
52189;DHT22;38162;45.926;13.608;2024-03-02T08:18:53;11.00;99.90
52189;DHT22;38162;45.926;13.608;2024-03-02T08:21:19;11.00;99.90
52189;DHT22;38162;45.926;13.608;2024-03-02T08:23:45;11.00;99.90
52189;DHT22;38162;45.926;13.608;2024-03-02T08:26:11;11.10;99.90
52189;DHT22;38162;45.926;13.608;2024-03-02T08:28:37;11.10;99.90
52189;DHT22;38162;45.926;13.608;2024-03-02T08:31:06;11.10;99.90
52189;DHT22;38162;45.926;13.608;2024-03-02T08:33:32;11.10;99.90
52189;DHT22;38162;45.926;13.608;2024-03-02T08:35:58;11.10;99.90
52189;DHT22;38162;45.926;13.608;2024-03-02T08:38:25;11.10;99.90
52189;DHT22;38162;45.926;13.608;2024-03-02T08:40:51;11.20;99.90
52189;DHT22;38162;45.926;13.608;2024-03-02T08:43:18;11.20;99.90
52189;DHT22;38162;45.926;13.608;2024-03-02T08:45:45;11.20;99.90
52189;DHT22;38162;45.926;13.608;2024-03-02T08:48:11;11.20;99.90
52189;DHT22;38162;45.926;13.608;2024-03-02T08:50:37;11.20;99.90
52189;DHT22;38162;45.926;13.608;2024-03-02T08:53:03;11.20;99.90
52189;DHT22;38162;45.926;13.608;2024-03-02T08:55:29;11.30;99.90
52189;DHT22;38162;45.926;13.608;2024-03-02T09:04:10;11.30;99.90
52189;DHT22;38162;45.926;13.608;2024-03-02T09:06:52;11.40;99.90
52189;DHT22;38162;45.926;13.608;2024-03-02T09:16:49;11.40;99.90
52189;DHT22;38162;45.926;13.608;2024-03-02T09:22:41;11.50;99.90
52189;DHT22;38162;45.926;13.608;2024-03-02T09:25:08;11.50;99.90
52189;DHT22;38162;45.926;13.608;2024-03-02T09:27:38;11.40;99.90
52189;DHT22;38162;45.926;13.608;2024-03-02T09:30:07;11.50;99.90
52189;DHT22;38162;45.926;13.608;2024-03-02T09:32:39;11.40;99.90
52189;DHT22;38162;45.926;13.608;2024-03-02T09:35:05;11.50;99.90
52189;DHT22;38162;45.926;13.608;2024-03-02T09:37:31;11.50;99.90
52189;DHT22;38162;45.926;13.608;2024-03-02T09:39:57;11.50;99.90
52189;DHT22;38162;45.926;13.608;2024-03-02T09:42:23;11.60;99.90
52189;DHT22;38162;45.926;13.608;2024-03-02T09:44:49;11.60;99.90
52189;DHT22;38162;45.926;13.608;2024-03-02T09:47:15;11.60;99.90
52189;DHT22;38162;45.926;13.608;2024-03-02T09:49:41;11.60;99.90
52189;DHT22;38162;45.926;13.608;2024-03-02T09:52:07;11.60;99.90
52189;DHT22;38162;45.926;13.608;2024-03-02T09:54:33;11.70;99.90
52189;DHT22;38162;45.926;13.608;2024-03-02T09:56:59;11.70;99.90
52189;DHT22;38162;45.926;13.608;2024-03-02T09:59:27;11.70;99.90
52189;DHT22;38162;45.926;13.608;2024-03-02T10:04:26;11.70;99.90
52189;DHT22;38162;45.926;13.608;2024-03-02T10:07:08;11.80;99.90
52189;DHT22;38162;45.926;13.608;2024-03-02T10:09:34;11.80;99.90
52189;DHT22;38162;45.926;13.608;2024-03-02T10:12:08;11.80;99.90
52189;DHT22;38162;45.926;13.608;2024-03-02T10:14:34;11.80;99.90
52189;DHT22;38162;45.926;13.608;2024-03-02T10:17:05;11.90;99.90
52189;DHT22;38162;45.926;13.608;2024-03-02T10:19:32;11.90;99.90
52189;DHT22;38162;45.926;13.608;2024-03-02T10:22:01;11.90;99.90
52189;DHT22;38162;45.926;13.608;2024-03-02T10:24:28;11.90;99.90
52189;DHT22;38162;45.926;13.608;2024-03-02T10:27:00;12.00;99.90
52189;DHT22;38162;45.926;13.608;2024-03-02T10:29:27;12.00;99.90
52189;DHT22;38162;45.926;13.608;2024-03-02T10:31:58;12.00;99.90
52189;DHT22;38162;45.926;13.608;2024-03-02T10:35:00;11.90;99.90
52189;DHT22;38162;45.926;13.608;2024-03-02T11:01:13;11.90;99.90
52189;DHT22;38162;45.926;13.608;2024-03-02T11:03:41;11.90;99.90
52189;DHT22;38162;45.926;13.608;2024-03-02T11:06:08;11.90;99.90
52189;DHT22;38162;45.926;13.608;2024-03-02T11:08:38;11.90;99.90
52189;DHT22;38162;45.926;13.608;2024-03-02T11:11:14;11.90;99.90
52189;DHT22;38162;45.926;13.608;2024-03-02T11:13:43;12.00;99.90
52189;DHT22;38162;45.926;13.608;2024-03-02T11:18:52;12.10;99.90
52189;DHT22;38162;45.926;13.608;2024-03-02T11:21:18;12.10;99.90
52189;DHT22;38162;45.926;13.608;2024-03-02T11:23:44;12.10;99.90
52189;DHT22;38162;45.926;13.608;2024-03-02T11:26:20;12.10;99.90
52189;DHT22;38162;45.926;13.608;2024-03-02T11:28:46;12.20;99.90
52189;DHT22;38162;45.926;13.608;2024-03-02T11:31:12;12.20;99.90
52189;DHT22;38162;45.926;13.608;2024-03-02T11:33:38;12.30;99.90
52189;DHT22;38162;45.926;13.608;2024-03-02T11:36:06;12.40;99.90
52189;DHT22;38162;45.926;13.608;2024-03-02T11:38:33;12.50;99.90
52189;DHT22;38162;45.926;13.608;2024-03-02T11:41:00;12.60;99.90
52189;DHT22;38162;45.926;13.608;2024-03-02T11:43:28;12.70;99.90
52189;DHT22;38162;45.926;13.608;2024-03-02T11:45:59;12.80;99.90
52189;DHT22;38162;45.926;13.608;2024-03-02T11:48:26;12.80;99.90
52189;DHT22;38162;45.926;13.608;2024-03-02T11:50:52;12.90;99.90
52189;DHT22;38162;45.926;13.608;2024-03-02T11:53:21;13.00;99.90
52189;DHT22;38162;45.926;13.608;2024-03-02T11:55:47;13.00;99.90
52189;DHT22;38162;45.926;13.608;2024-03-02T11:58:15;13.10;99.90
52189;DHT22;38162;45.926;13.608;2024-03-02T12:00:56;13.10;99.90
52189;DHT22;38162;45.926;13.608;2024-03-02T12:03:24;13.20;99.90
52189;DHT22;38162;45.926;13.608;2024-03-02T12:05:55;13.10;99.90
52189;DHT22;38162;45.926;13.608;2024-03-02T12:08:21;13.20;99.90
52189;DHT22;38162;45.926;13.608;2024-03-02T12:27:49;14.00;99.90
52189;DHT22;38162;45.926;13.608;2024-03-02T12:33:26;13.90;99.90
52189;DHT22;38162;45.926;13.608;2024-03-02T12:35:57;13.80;99.90
52189;DHT22;38162;45.926;13.608;2024-03-02T12:38:24;13.70;99.90
52189;DHT22;38162;45.926;13.608;2024-03-02T12:40:51;13.60;99.90
52189;DHT22;38162;45.926;13.608;2024-03-02T12:43:18;13.60;99.90
52189;DHT22;38162;45.926;13.608;2024-03-02T12:45:44;13.50;99.90
52189;DHT22;38162;45.926;13.608;2024-03-02T12:48:10;13.50;99.90
52189;DHT22;38162;45.926;13.608;2024-03-02T12:50:35;13.40;99.90
52189;DHT22;38162;45.926;13.608;2024-03-02T12:53:01;13.40;99.90
52189;DHT22;38162;45.926;13.608;2024-03-02T12:55:27;13.40;99.90
52189;DHT22;38162;45.926;13.608;2024-03-02T12:57:54;13.40;99.90
52189;DHT22;38162;45.926;13.608;2024-03-02T13:00:21;13.40;99.90
52189;DHT22;38162;45.926;13.608;2024-03-02T13:02:47;13.30;99.90
52189;DHT22;38162;45.926;13.608;2024-03-02T13:05:14;13.30;99.90
52189;DHT22;38162;45.926;13.608;2024-03-02T13:07:40;13.30;99.90
52189;DHT22;38162;45.926;13.608;2024-03-02T13:10:07;13.20;99.90
52189;DHT22;38162;45.926;13.608;2024-03-02T13:12:36;13.20;99.90
52189;DHT22;38162;45.926;13.608;2024-03-02T13:15:02;13.20;99.90
52189;DHT22;38162;45.926;13.608;2024-03-02T13:17:29;13.20;99.90
52189;DHT22;38162;45.926;13.608;2024-03-02T13:19:56;13.10;99.90
52189;DHT22;38162;45.926;13.608;2024-03-02T13:22:22;13.10;99.90
52189;DHT22;38162;45.926;13.608;2024-03-02T13:24:49;13.10;99.90
52189;DHT22;38162;45.926;13.608;2024-03-02T13:27:15;13.00;99.90
52189;DHT22;38162;45.926;13.608;2024-03-02T13:29:42;13.00;99.90
52189;DHT22;38162;45.926;13.608;2024-03-02T13:32:08;12.90;99.90
52189;DHT22;38162;45.926;13.608;2024-03-02T13:34:35;13.00;99.90
52189;DHT22;38162;45.926;13.608;2024-03-02T13:37:03;12.90;99.90
52189;DHT22;38162;45.926;13.608;2024-03-02T13:39:33;12.90;99.90
52189;DHT22;38162;45.926;13.608;2024-03-02T13:42:11;12.90;99.90
52189;DHT22;38162;45.926;13.608;2024-03-02T13:52:21;12.80;99.90
52189;DHT22;38162;45.926;13.608;2024-03-02T14:01:50;12.70;99.90
52189;DHT22;38162;45.926;13.608;2024-03-02T14:04:26;12.70;99.90
52189;DHT22;38162;45.926;13.608;2024-03-02T14:07:22;12.70;99.90
52189;DHT22;38162;45.926;13.608;2024-03-02T14:09:47;12.70;99.90
52189;DHT22;38162;45.926;13.608;2024-03-02T14:12:13;12.70;99.90
52189;DHT22;38162;45.926;13.608;2024-03-02T14:14:39;12.70;99.90
52189;DHT22;38162;45.926;13.608;2024-03-02T14:17:05;12.70;99.90
52189;DHT22;38162;45.926;13.608;2024-03-02T14:19:32;12.60;99.90
52189;DHT22;38162;45.926;13.608;2024-03-02T14:21:58;12.70;99.90
52189;DHT22;38162;45.926;13.608;2024-03-02T14:24:24;12.70;99.90
52189;DHT22;38162;45.926;13.608;2024-03-02T14:26:52;12.60;99.90
52189;DHT22;38162;45.926;13.608;2024-03-02T14:29:18;12.60;99.90
52189;DHT22;38162;45.926;13.608;2024-03-02T14:31:44;12.60;99.90
52189;DHT22;38162;45.926;13.608;2024-03-02T14:34:14;12.60;99.90
52189;DHT22;38162;45.926;13.608;2024-03-02T14:36:40;12.60;99.90
52189;DHT22;38162;45.926;13.608;2024-03-02T14:39:06;12.60;99.90
52189;DHT22;38162;45.926;13.608;2024-03-02T14:41:36;12.60;99.90
52189;DHT22;38162;45.926;13.608;2024-03-02T14:44:02;12.60;99.90
52189;DHT22;38162;45.926;13.608;2024-03-02T14:46:28;12.60;99.90
52189;DHT22;38162;45.926;13.608;2024-03-02T14:48:54;12.60;99.90
52189;DHT22;38162;45.926;13.608;2024-03-02T14:51:20;12.60;99.90
52189;DHT22;38162;45.926;13.608;2024-03-02T14:53:46;12.60;99.90
52189;DHT22;38162;45.926;13.608;2024-03-02T14:56:12;12.70;99.90
52189;DHT22;38162;45.926;13.608;2024-03-02T14:58:39;12.70;99.90
52189;DHT22;38162;45.926;13.608;2024-03-02T15:01:05;12.70;99.90
52189;DHT22;38162;45.926;13.608;2024-03-02T15:03:32;12.80;99.90
52189;DHT22;38162;45.926;13.608;2024-03-02T15:05:58;12.80;99.90
52189;DHT22;38162;45.926;13.608;2024-03-02T15:08:24;12.80;99.90
52189;DHT22;38162;45.926;13.608;2024-03-02T15:10:50;12.80;99.90
52189;DHT22;38162;45.926;13.608;2024-03-02T15:13:16;12.80;99.90
52189;DHT22;38162;45.926;13.608;2024-03-02T15:15:42;12.80;99.90
52189;DHT22;38162;45.926;13.608;2024-03-02T15:18:26;12.80;99.90
52189;DHT22;38162;45.926;13.608;2024-03-02T15:21:17;12.80;99.90
52189;DHT22;38162;45.926;13.608;2024-03-02T15:27:44;12.90;99.90
52189;DHT22;38162;45.926;13.608;2024-03-02T15:49:24;12.80;99.90
52189;DHT22;38162;45.926;13.608;2024-03-02T15:51:50;12.80;99.90
52189;DHT22;38162;45.926;13.608;2024-03-02T15:54:15;12.80;99.90
52189;DHT22;38162;45.926;13.608;2024-03-02T15:56:41;12.80;99.90
52189;DHT22;38162;45.926;13.608;2024-03-02T15:59:07;12.70;99.90
52189;DHT22;38162;45.926;13.608;2024-03-02T16:01:33;12.80;99.90
52189;DHT22;38162;45.926;13.608;2024-03-02T16:03:59;12.70;99.90
52189;DHT22;38162;45.926;13.608;2024-03-02T16:06:24;12.80;99.90
52189;DHT22;38162;45.926;13.608;2024-03-02T16:08:50;12.80;99.90
52189;DHT22;38162;45.926;13.608;2024-03-02T16:11:17;12.80;99.90
52189;DHT22;38162;45.926;13.608;2024-03-02T16:13:42;12.70;99.90
52189;DHT22;38162;45.926;13.608;2024-03-02T16:16:08;12.70;99.90
52189;DHT22;38162;45.926;13.608;2024-03-02T16:18:34;12.70;99.90
52189;DHT22;38162;45.926;13.608;2024-03-02T16:21:00;12.70;99.90
52189;DHT22;38162;45.926;13.608;2024-03-02T16:23:26;12.70;99.90
52189;DHT22;38162;45.926;13.608;2024-03-02T16:25:51;12.60;99.90
52189;DHT22;38162;45.926;13.608;2024-03-02T16:28:17;12.60;99.90
52189;DHT22;38162;45.926;13.608;2024-03-02T16:30:43;12.60;99.90
52189;DHT22;38162;45.926;13.608;2024-03-02T16:33:08;12.60;99.90
52189;DHT22;38162;45.926;13.608;2024-03-02T16:35:34;12.60;99.90
52189;DHT22;38162;45.926;13.608;2024-03-02T16:38:00;12.60;99.90
52189;DHT22;38162;45.926;13.608;2024-03-02T16:40:26;12.60;99.90
52189;DHT22;38162;45.926;13.608;2024-03-02T16:42:53;12.60;99.90
52189;DHT22;38162;45.926;13.608;2024-03-02T16:45:19;12.50;99.90
52189;DHT22;38162;45.926;13.608;2024-03-02T16:47:45;12.60;99.90
52189;DHT22;38162;45.926;13.608;2024-03-02T16:50:11;12.50;99.90
52189;DHT22;38162;45.926;13.608;2024-03-02T16:52:40;12.50;99.90
52189;DHT22;38162;45.926;13.608;2024-03-02T16:55:12;12.50;99.90
52189;DHT22;38162;45.926;13.608;2024-03-02T16:58:04;12.50;99.90
52189;DHT22;38162;45.926;13.608;2024-03-02T17:00:46;12.40;99.90
52189;DHT22;38162;45.926;13.608;2024-03-02T17:06:39;12.30;99.90
52189;DHT22;38162;45.926;13.608;2024-03-02T17:10:10;12.30;99.90
52189;DHT22;38162;45.926;13.608;2024-03-02T17:16:25;12.20;99.90
52189;DHT22;38162;45.926;13.608;2024-03-02T17:18:52;12.20;99.90
52189;DHT22;38162;45.926;13.608;2024-03-02T17:21:18;12.20;99.90
52189;DHT22;38162;45.926;13.608;2024-03-02T17:23:44;12.20;99.90
52189;DHT22;38162;45.926;13.608;2024-03-02T17:26:10;12.10;99.90
52189;DHT22;38162;45.926;13.608;2024-03-02T17:28:35;12.20;99.90
52189;DHT22;38162;45.926;13.608;2024-03-02T17:31:01;12.10;99.90
52189;DHT22;38162;45.926;13.608;2024-03-02T17:33:29;12.20;99.90
52189;DHT22;38162;45.926;13.608;2024-03-02T17:35:55;12.20;99.90
52189;DHT22;38162;45.926;13.608;2024-03-02T17:38:22;12.10;99.90
52189;DHT22;38162;45.926;13.608;2024-03-02T17:40:48;12.10;99.90
52189;DHT22;38162;45.926;13.608;2024-03-02T17:43:14;12.00;99.90
52189;DHT22;38162;45.926;13.608;2024-03-02T17:45:40;12.00;99.90
52189;DHT22;38162;45.926;13.608;2024-03-02T17:48:09;12.10;99.90
52189;DHT22;38162;45.926;13.608;2024-03-02T17:50:38;12.00;99.90
52189;DHT22;38162;45.926;13.608;2024-03-02T17:53:04;12.00;99.90
52189;DHT22;38162;45.926;13.608;2024-03-02T17:55:29;12.00;99.90
52189;DHT22;38162;45.926;13.608;2024-03-02T17:57:56;11.90;99.90
52189;DHT22;38162;45.926;13.608;2024-03-02T18:00:22;11.90;99.90
52189;DHT22;38162;45.926;13.608;2024-03-02T18:02:48;11.80;99.90
52189;DHT22;38162;45.926;13.608;2024-03-02T18:05:14;11.80;99.90
52189;DHT22;38162;45.926;13.608;2024-03-02T18:07:39;11.80;99.90
52189;DHT22;38162;45.926;13.608;2024-03-02T18:10:06;11.80;99.90
52189;DHT22;38162;45.926;13.608;2024-03-02T18:12:32;11.80;99.90
52189;DHT22;38162;45.926;13.608;2024-03-02T18:14:58;11.80;99.90
52189;DHT22;38162;45.926;13.608;2024-03-02T18:17:24;11.80;99.90
52189;DHT22;38162;45.926;13.608;2024-03-02T18:19:50;11.70;99.90
52189;DHT22;38162;45.926;13.608;2024-03-02T18:22:17;11.80;99.90
52189;DHT22;38162;45.926;13.608;2024-03-02T18:31:55;11.70;99.90
52189;DHT22;38162;45.926;13.608;2024-03-02T18:45:42;11.70;99.90